sensor_id;sensor_type;location;lat;lon;timestamp;pressure;altitude;pressure_sealevel;temperature;humidity
25658;BME280;13517;59.320;18.042;2023-12-07T00:01:54;102117.56;;;-8.25;100.00
25658;BME280;13517;59.320;18.042;2023-12-07T00:04:19;102165.81;;;-7.94;100.00
25658;BME280;13517;59.320;18.042;2023-12-07T00:06:45;102124.97;;;-8.13;100.00
25658;BME280;13517;59.320;18.042;2023-12-07T00:09:10;102133.81;;;-8.10;100.00
25658;BME280;13517;59.320;18.042;2023-12-07T00:11:35;102135.88;;;-8.01;100.00
25658;BME280;13517;59.320;18.042;2023-12-07T00:14:01;102152.94;;;-7.88;100.00
25658;BME280;13517;59.320;18.042;2023-12-07T00:16:26;102121.06;;;-7.99;100.00
25658;BME280;13517;59.320;18.042;2023-12-07T00:18:51;102101.50;;;-8.09;100.00
25658;BME280;13517;59.320;18.042;2023-12-07T00:21:17;102163.91;;;-7.74;100.00
25658;BME280;13517;59.320;18.042;2023-12-07T00:23:42;102122.19;;;-7.92;100.00
25658;BME280;13517;59.320;18.042;2023-12-07T00:26:08;102132.31;;;-7.77;100.00
25658;BME280;13517;59.320;18.042;2023-12-07T00:28:33;102116.34;;;-7.83;100.00
25658;BME280;13517;59.320;18.042;2023-12-07T00:30:59;102106.47;;;-7.92;100.00
25658;BME280;13517;59.320;18.042;2023-12-07T00:33:24;102161.88;;;-7.57;100.00
25658;BME280;13517;59.320;18.042;2023-12-07T00:35:49;102125.34;;;-7.76;100.00
25658;BME280;13517;59.320;18.042;2023-12-07T00:38:15;102169.88;;;-7.52;100.00
25658;BME280;13517;59.320;18.042;2023-12-07T00:40:40;102165.84;;;-7.42;100.00
25658;BME280;13517;59.320;18.042;2023-12-07T00:43:06;102125.97;;;-7.58;100.00
25658;BME280;13517;59.320;18.042;2023-12-07T00:45:32;102161.66;;;-7.35;100.00
25658;BME280;13517;59.320;18.042;2023-12-07T00:47:58;102153.84;;;-7.34;100.00
25658;BME280;13517;59.320;18.042;2023-12-07T00:50:23;102152.06;;;-7.35;100.00
25658;BME280;13517;59.320;18.042;2023-12-07T00:52:48;102160.16;;;-7.29;100.00
25658;BME280;13517;59.320;18.042;2023-12-07T00:55:14;102129.75;;;-7.48;100.00
25658;BME280;13517;59.320;18.042;2023-12-07T00:57:40;102130.09;;;-7.37;100.00
25658;BME280;13517;59.320;18.042;2023-12-07T01:00:06;102170.19;;;-7.15;100.00
25658;BME280;13517;59.320;18.042;2023-12-07T01:02:31;102120.16;;;-7.47;100.00
25658;BME280;13517;59.320;18.042;2023-12-07T01:04:57;102113.81;;;-7.54;100.00
25658;BME280;13517;59.320;18.042;2023-12-07T01:07:22;102156.09;;;-7.17;100.00
25658;BME280;13517;59.320;18.042;2023-12-07T01:09:48;102155.25;;;-7.16;100.00
25658;BME280;13517;59.320;18.042;2023-12-07T01:12:13;102125.75;;;-7.36;100.00
25658;BME280;13517;59.320;18.042;2023-12-07T01:14:39;102139.41;;;-7.19;100.00
25658;BME280;13517;59.320;18.042;2023-12-07T01:17:04;102129.56;;;-7.27;100.00
25658;BME280;13517;59.320;18.042;2023-12-07T01:19:29;102153.81;;;-7.06;100.00
25658;BME280;13517;59.320;18.042;2023-12-07T01:21:55;102147.50;;;-7.13;100.00
25658;BME280;13517;59.320;18.042;2023-12-07T01:24:20;102127.22;;;-7.17;100.00
25658;BME280;13517;59.320;18.042;2023-12-07T01:26:46;102142.50;;;-7.04;100.00
25658;BME280;13517;59.320;18.042;2023-12-07T01:29:11;102061.50;;;-7.48;100.00
25658;BME280;13517;59.320;18.042;2023-12-07T01:31:37;102125.56;;;-7.14;100.00
25658;BME280;13517;59.320;18.042;2023-12-07T01:34:03;102136.06;;;-7.15;100.00
25658;BME280;13517;59.320;18.042;2023-12-07T01:36:28;102141.66;;;-7.04;100.00
25658;BME280;13517;59.320;18.042;2023-12-07T01:38:53;102128.34;;;-7.09;100.00
25658;BME280;13517;59.320;18.042;2023-12-07T01:41:19;102057.00;;;-7.52;100.00
25658;BME280;13517;59.320;18.042;2023-12-07T01:43:47;102155.13;;;-6.92;100.00
25658;BME280;13517;59.320;18.042;2023-12-07T01:46:14;102162.22;;;-6.89;100.00
25658;BME280;13517;59.320;18.042;2023-12-07T01:48:40;102120.31;;;-7.15;100.00
25658;BME280;13517;59.320;18.042;2023-12-07T01:51:06;102115.00;;;-7.17;100.00
25658;BME280;13517;59.320;18.042;2023-12-07T01:53:32;102131.94;;;-7.07;100.00
25658;BME280;13517;59.320;18.042;2023-12-07T01:55:58;102151.31;;;-7.02;100.00
25658;BME280;13517;59.320;18.042;2023-12-07T01:58:24;102161.38;;;-6.88;100.00
25658;BME280;13517;59.320;18.042;2023-12-07T02:00:50;102160.25;;;-6.97;100.00
25658;BME280;13517;59.320;18.042;2023-12-07T02:03:16;102137.97;;;-7.09;100.00
25658;BME280;13517;59.320;18.042;2023-12-07T02:05:45;102143.44;;;-7.02;100.00
25658;BME280;13517;59.320;18.042;2023-12-07T02:08:11;102154.25;;;-6.92;100.00
25658;BME280;13517;59.320;18.042;2023-12-07T02:10:37;102181.00;;;-6.77;100.00
25658;BME280;13517;59.320;18.042;2023-12-07T02:13:02;102153.50;;;-6.88;100.00
25658;BME280;13517;59.320;18.042;2023-12-07T02:15:29;102166.16;;;-6.75;100.00
25658;BME280;13517;59.320;18.042;2023-12-07T02:20:36;102131.69;;;-6.86;100.00
25658;BME280;13517;59.320;18.042;2023-12-07T02:23:04;102166.47;;;-6.65;100.00
25658;BME280;13517;59.320;18.042;2023-12-07T02:25:36;102151.44;;;-6.70;100.00
25658;BME280;13517;59.320;18.042;2023-12-07T02:28:05;102122.81;;;-6.89;100.00
25658;BME280;13517;59.320;18.042;2023-12-07T02:30:31;102108.50;;;-6.99;100.00
25658;BME280;13517;59.320;18.042;2023-12-07T02:32:57;102159.41;;;-6.66;100.00
25658;BME280;13517;59.320;18.042;2023-12-07T02:35:22;102159.41;;;-6.66;100.00
25658;BME280;13517;59.320;18.042;2023-12-07T02:37:49;102154.13;;;-6.66;100.00
25658;BME280;13517;59.320;18.042;2023-12-07T02:40:18;102157.66;;;-6.66;100.00
25658;BME280;13517;59.320;18.042;2023-12-07T02:42:44;102120.28;;;-6.86;100.00
25658;BME280;13517;59.320;18.042;2023-12-07T02:45:10;102155.94;;;-6.65;100.00
25658;BME280;13517;59.320;18.042;2023-12-07T02:47:36;102127.31;;;-6.85;100.00
25658;BME280;13517;59.320;18.042;2023-12-07T02:50:06;102114.84;;;-6.92;100.00
25658;BME280;13517;59.320;18.042;2023-12-07T02:52:32;102134.41;;;-6.82;100.00
25658;BME280;13517;59.320;18.042;2023-12-07T02:54:58;102167.47;;;-6.60;100.00
25658;BME280;13517;59.320;18.042;2023-12-07T02:57:23;102157.81;;;-6.61;100.00
25658;BME280;13517;59.320;18.042;2023-12-07T02:59:49;102101.78;;;-6.89;100.00
25658;BME280;13517;59.320;18.042;2023-12-07T03:02:14;102119.53;;;-6.82;100.00
25658;BME280;13517;59.320;18.042;2023-12-07T03:04:40;102118.78;;;-6.78;100.00
25658;BME280;13517;59.320;18.042;2023-12-07T03:07:05;102148.22;;;-6.59;100.00
25658;BME280;13517;59.320;18.042;2023-12-07T03:09:30;102153.44;;;-6.61;100.00
25658;BME280;13517;59.320;18.042;2023-12-07T03:11:56;102140.25;;;-6.62;100.00
25658;BME280;13517;59.320;18.042;2023-12-07T03:14:21;102098.41;;;-6.85;100.00
25658;BME280;13517;59.320;18.042;2023-12-07T03:16:47;102100.13;;;-6.87;100.00
25658;BME280;13517;59.320;18.042;2023-12-07T03:19:12;102070.06;;;-6.97;100.00
25658;BME280;13517;59.320;18.042;2023-12-07T03:21:41;102132.50;;;-6.58;100.00
25658;BME280;13517;59.320;18.042;2023-12-07T03:24:08;102078.31;;;-6.83;100.00
25658;BME280;13517;59.320;18.042;2023-12-07T03:26:34;102143.94;;;-6.56;100.00
25658;BME280;13517;59.320;18.042;2023-12-07T03:29:00;102131.56;;;-6.60;100.00
25658;BME280;13517;59.320;18.042;2023-12-07T03:31:25;102142.31;;;-6.52;100.00
25658;BME280;13517;59.320;18.042;2023-12-07T03:33:51;102140.38;;;-6.58;100.00
25658;BME280;13517;59.320;18.042;2023-12-07T03:36:16;102137.69;;;-6.59;100.00
25658;BME280;13517;59.320;18.042;2023-12-07T03:38:42;102104.88;;;-6.74;100.00
25658;BME280;13517;59.320;18.042;2023-12-07T03:41:08;102092.38;;;-6.81;100.00
25658;BME280;13517;59.320;18.042;2023-12-07T03:43:33;102123.56;;;-6.63;100.00
25658;BME280;13517;59.320;18.042;2023-12-07T03:45:59;102153.84;;;-6.47;100.00
25658;BME280;13517;59.320;18.042;2023-12-07T03:48:24;102121.84;;;-6.62;100.00
25658;BME280;13517;59.320;18.042;2023-12-07T03:50:50;102144.16;;;-6.48;100.00
25658;BME280;13517;59.320;18.042;2023-12-07T03:53:15;102088.88;;;-6.81;100.00
25658;BME280;13517;59.320;18.042;2023-12-07T03:55:41;102125.19;;;-6.68;100.00
25658;BME280;13517;59.320;18.042;2023-12-07T03:58:06;102141.50;;;-6.49;100.00
25658;BME280;13517;59.320;18.042;2023-12-07T04:00:32;102120.78;;;-6.69;100.00
25658;BME280;13517;59.320;18.042;2023-12-07T04:02:57;102144.09;;;-6.51;100.00
25658;BME280;13517;59.320;18.042;2023-12-07T04:05:23;102142.25;;;-6.53;100.00
25658;BME280;13517;59.320;18.042;2023-12-07T04:07:48;102100.47;;;-6.75;100.00
25658;BME280;13517;59.320;18.042;2023-12-07T04:10:14;102098.56;;;-6.80;100.00
25658;BME280;13517;59.320;18.042;2023-12-07T04:12:40;102087.13;;;-6.81;100.00
25658;BME280;13517;59.320;18.042;2023-12-07T04:15:05;102109.44;;;-6.68;100.00
25658;BME280;13517;59.320;18.042;2023-12-07T04:17:31;102145.94;;;-6.47;100.00
25658;BME280;13517;59.320;18.042;2023-12-07T04:19:56;102130.84;;;-6.54;100.00
25658;BME280;13517;59.320;18.042;2023-12-07T04:22:23;102117.38;;;-6.65;100.00
25658;BME280;13517;59.320;18.042;2023-12-07T04:24:48;102112.19;;;-6.63;100.00
25658;BME280;13517;59.320;18.042;2023-12-07T04:27:13;102116.72;;;-6.58;100.00
25658;BME280;13517;59.320;18.042;2023-12-07T04:29:39;102131.03;;;-6.48;100.00
25658;BME280;13517;59.320;18.042;2023-12-07T04:32:05;102126.53;;;-6.52;100.00
25658;BME280;13517;59.320;18.042;2023-12-07T04:34:31;102158.72;;;-6.30;100.00
25658;BME280;13517;59.320;18.042;2023-12-07T04:36:56;102104.28;;;-6.63;100.00
25658;BME280;13517;59.320;18.042;2023-12-07T04:39:22;102116.09;;;-6.49;100.00
25658;BME280;13517;59.320;18.042;2023-12-07T04:41:47;102145.19;;;-6.43;100.00
25658;BME280;13517;59.320;18.042;2023-12-07T04:44:12;102142.06;;;-6.29;100.00
25658;BME280;13517;59.320;18.042;2023-12-07T04:46:38;102124.25;;;-6.39;100.00
25658;BME280;13517;59.320;18.042;2023-12-07T04:49:03;102136.94;;;-6.24;100.00
25658;BME280;13517;59.320;18.042;2023-12-07T04:51:29;102095.34;;;-6.38;100.00
25658;BME280;13517;59.320;18.042;2023-12-07T04:53:54;102121.38;;;-6.15;100.00
25658;BME280;13517;59.320;18.042;2023-12-07T04:56:19;102126.88;;;-6.07;100.00
25658;BME280;13517;59.320;18.042;2023-12-07T04:58:45;102104.63;;;-6.19;100.00
25658;BME280;13517;59.320;18.042;2023-12-07T05:01:10;102125.25;;;-6.02;100.00
25658;BME280;13517;59.320;18.042;2023-12-07T05:03:36;102128.00;;;-5.96;100.00
25658;BME280;13517;59.320;18.042;2023-12-07T05:06:01;102112.88;;;-6.06;100.00
25658;BME280;13517;59.320;18.042;2023-12-07T05:08:26;102155.56;;;-5.81;100.00
25658;BME280;13517;59.320;18.042;2023-12-07T05:10:52;102126.44;;;-5.89;100.00
25658;BME280;13517;59.320;18.042;2023-12-07T05:13:18;102142.56;;;-5.75;100.00
25658;BME280;13517;59.320;18.042;2023-12-07T05:15:43;102146.97;;;-5.74;100.00
25658;BME280;13517;59.320;18.042;2023-12-07T05:18:08;102131.81;;;-5.84;100.00
25658;BME280;13517;59.320;18.042;2023-12-07T05:20:34;102142.84;;;-5.66;100.00
25658;BME280;13517;59.320;18.042;2023-12-07T05:22:59;102144.50;;;-5.68;100.00
25658;BME280;13517;59.320;18.042;2023-12-07T05:25:24;102109.91;;;-5.83;100.00
25658;BME280;13517;59.320;18.042;2023-12-07T05:27:50;102157.94;;;-5.58;100.00
25658;BME280;13517;59.320;18.042;2023-12-07T05:30:15;102117.06;;;-5.78;100.00
25658;BME280;13517;59.320;18.042;2023-12-07T05:32:41;102144.81;;;-5.55;100.00
25658;BME280;13517;59.320;18.042;2023-12-07T05:35:06;102123.59;;;-5.62;100.00
25658;BME280;13517;59.320;18.042;2023-12-07T05:37:32;102122.78;;;-5.59;100.00
25658;BME280;13517;59.320;18.042;2023-12-07T05:39:58;102157.50;;;-5.39;100.00
25658;BME280;13517;59.320;18.042;2023-12-07T05:42:23;102114.13;;;-5.55;100.00
25658;BME280;13517;59.320;18.042;2023-12-07T05:44:48;102147.03;;;-5.37;100.00
25658;BME280;13517;59.320;18.042;2023-12-07T05:47:14;102110.50;;;-5.60;100.00
25658;BME280;13517;59.320;18.042;2023-12-07T05:49:39;102144.50;;;-5.33;100.00
25658;BME280;13517;59.320;18.042;2023-12-07T05:52:05;102128.53;;;-5.39;100.00
25658;BME280;13517;59.320;18.042;2023-12-07T05:54:30;102102.84;;;-5.49;100.00
25658;BME280;13517;59.320;18.042;2023-12-07T05:56:55;102094.19;;;-5.45;100.00
25658;BME280;13517;59.320;18.042;2023-12-07T05:59:21;102116.31;;;-5.35;100.00
25658;BME280;13517;59.320;18.042;2023-12-07T06:01:47;102108.25;;;-5.43;100.00
25658;BME280;13517;59.320;18.042;2023-12-07T06:04:13;102128.94;;;-5.22;100.00
25658;BME280;13517;59.320;18.042;2023-12-07T06:06:38;102140.59;;;-5.12;100.00
25658;BME280;13517;59.320;18.042;2023-12-07T06:09:04;102138.03;;;-5.09;100.00
25658;BME280;13517;59.320;18.042;2023-12-07T06:11:33;102111.34;;;-5.24;100.00
25658;BME280;13517;59.320;18.042;2023-12-07T06:13:59;102101.75;;;-5.21;100.00
25658;BME280;13517;59.320;18.042;2023-12-07T06:16:25;102128.47;;;-5.03;100.00
25658;BME280;13517;59.320;18.042;2023-12-07T06:18:51;102105.28;;;-5.20;100.00
25658;BME280;13517;59.320;18.042;2023-12-07T06:21:16;102123.91;;;-5.12;100.00
25658;BME280;13517;59.320;18.042;2023-12-07T06:23:42;102098.28;;;-5.18;100.00
25658;BME280;13517;59.320;18.042;2023-12-07T06:26:07;102111.66;;;-5.10;100.00
25658;BME280;13517;59.320;18.042;2023-12-07T06:28:33;102090.41;;;-5.16;100.00
25658;BME280;13517;59.320;18.042;2023-12-07T06:31:04;102130.47;;;-4.93;100.00
25658;BME280;13517;59.320;18.042;2023-12-07T06:33:31;102100.28;;;-5.08;100.00
25658;BME280;13517;59.320;18.042;2023-12-07T06:35:56;102104.88;;;-4.99;100.00
25658;BME280;13517;59.320;18.042;2023-12-07T06:38:22;102087.97;;;-5.09;100.00
25658;BME280;13517;59.320;18.042;2023-12-07T06:40:47;102142.25;;;-4.77;100.00
25658;BME280;13517;59.320;18.042;2023-12-07T06:43:12;102126.28;;;-4.83;100.00
25658;BME280;13517;59.320;18.042;2023-12-07T06:45:39;102137.00;;;-4.75;100.00
25658;BME280;13517;59.320;18.042;2023-12-07T06:48:05;102088.16;;;-4.99;100.00
25658;BME280;13517;59.320;18.042;2023-12-07T06:50:30;102134.50;;;-4.69;100.00
25658;BME280;13517;59.320;18.042;2023-12-07T06:52:56;102129.16;;;-4.72;100.00
25658;BME280;13517;59.320;18.042;2023-12-07T06:55:21;102091.84;;;-4.91;100.00
25658;BME280;13517;59.320;18.042;2023-12-07T06:57:48;102131.81;;;-4.72;100.00
25658;BME280;13517;59.320;18.042;2023-12-07T07:00:13;102157.59;;;-4.59;100.00
25658;BME280;13517;59.320;18.042;2023-12-07T07:02:39;102106.09;;;-4.83;100.00
25658;BME280;13517;59.320;18.042;2023-12-07T07:05:05;102112.44;;;-4.73;100.00
25658;BME280;13517;59.320;18.042;2023-12-07T07:07:32;102112.53;;;-4.70;100.00
25658;BME280;13517;59.320;18.042;2023-12-07T07:09:57;102105.47;;;-4.69;100.00
25658;BME280;13517;59.320;18.042;2023-12-07T07:12:24;102111.81;;;-4.61;100.00
25658;BME280;13517;59.320;18.042;2023-12-07T07:14:49;102140.34;;;-4.41;100.00
25658;BME280;13517;59.320;18.042;2023-12-07T07:17:14;102136.84;;;-4.40;100.00
25658;BME280;13517;59.320;18.042;2023-12-07T07:19:40;102140.44;;;-4.37;100.00
25658;BME280;13517;59.320;18.042;2023-12-07T07:22:06;102096.97;;;-4.56;100.00
25658;BME280;13517;59.320;18.042;2023-12-07T07:24:31;102137.91;;;-4.30;100.00
25658;BME280;13517;59.320;18.042;2023-12-07T07:26:57;102083.72;;;-4.59;100.00
25658;BME280;13517;59.320;18.042;2023-12-07T07:29:22;102144.16;;;-4.27;100.00
25658;BME280;13517;59.320;18.042;2023-12-07T07:31:48;102087.34;;;-4.54;100.00
25658;BME280;13517;59.320;18.042;2023-12-07T07:34:13;102144.28;;;-4.20;100.00
25658;BME280;13517;59.320;18.042;2023-12-07T07:36:38;102076.72;;;-4.57;100.00
25658;BME280;13517;59.320;18.042;2023-12-07T07:39:04;102089.31;;;-4.43;100.00
25658;BME280;13517;59.320;18.042;2023-12-07T07:41:33;102094.59;;;-4.43;100.00
25658;BME280;13517;59.320;18.042;2023-12-07T07:43:58;102125.78;;;-4.20;100.00
25658;BME280;13517;59.320;18.042;2023-12-07T07:46:24;102131.97;;;-4.18;100.00
25658;BME280;13517;59.320;18.042;2023-12-07T07:48:50;102105.38;;;-4.31;100.00
25658;BME280;13517;59.320;18.042;2023-12-07T07:51:15;102127.66;;;-4.15;100.00
25658;BME280;13517;59.320;18.042;2023-12-07T07:53:41;102134.78;;;-4.11;100.00
25658;BME280;13517;59.320;18.042;2023-12-07T07:56:06;102100.22;;;-4.25;100.00
25658;BME280;13517;59.320;18.042;2023-12-07T07:58:32;102125.13;;;-4.10;100.00
25658;BME280;13517;59.320;18.042;2023-12-07T08:00:57;102115.44;;;-4.10;100.00
25658;BME280;13517;59.320;18.042;2023-12-07T08:03:23;102137.78;;;-3.92;100.00
25658;BME280;13517;59.320;18.042;2023-12-07T08:05:48;102152.00;;;-3.84;100.00
25658;BME280;13517;59.320;18.042;2023-12-07T08:08:14;102103.22;;;-4.04;100.00
25658;BME280;13517;59.320;18.042;2023-12-07T08:10:39;102129.91;;;-3.89;100.00
25658;BME280;13517;59.320;18.042;2023-12-07T08:13:04;102095.28;;;-4.06;100.00
25658;BME280;13517;59.320;18.042;2023-12-07T08:15:30;102143.38;;;-3.73;100.00
25658;BME280;13517;59.320;18.042;2023-12-07T08:17:56;102151.41;;;-3.67;100.00
25658;BME280;13517;59.320;18.042;2023-12-07T08:20:21;102115.06;;;-3.82;100.00
25658;BME280;13517;59.320;18.042;2023-12-07T08:22:46;102114.19;;;-3.81;100.00
25658;BME280;13517;59.320;18.042;2023-12-07T08:25:12;102108.94;;;-3.79;100.00
25658;BME280;13517;59.320;18.042;2023-12-07T08:27:38;102068.22;;;-3.92;100.00
25658;BME280;13517;59.320;18.042;2023-12-07T08:30:04;102119.81;;;-3.61;100.00
25658;BME280;13517;59.320;18.042;2023-12-07T08:32:30;102087.91;;;-3.75;100.00
25658;BME280;13517;59.320;18.042;2023-12-07T08:34:56;102142.97;;;-3.44;100.00
25658;BME280;13517;59.320;18.042;2023-12-07T08:37:21;102141.25;;;-3.40;100.00
25658;BME280;13517;59.320;18.042;2023-12-07T08:39:47;102137.81;;;-3.36;100.00
25658;BME280;13517;59.320;18.042;2023-12-07T08:42:12;102108.44;;;-3.55;100.00
25658;BME280;13517;59.320;18.042;2023-12-07T08:44:38;102137.88;;;-3.32;100.00
25658;BME280;13517;59.320;18.042;2023-12-07T08:47:04;102106.88;;;-3.44;100.00
25658;BME280;13517;59.320;18.042;2023-12-07T08:49:30;102133.59;;;-3.23;100.00
25658;BME280;13517;59.320;18.042;2023-12-07T08:51:56;102082.09;;;-3.52;100.00
25658;BME280;13517;59.320;18.042;2023-12-07T08:54:22;102138.13;;;-3.18;100.00
25658;BME280;13517;59.320;18.042;2023-12-07T08:56:47;102114.97;;;-3.33;100.00
25658;BME280;13517;59.320;18.042;2023-12-07T08:59:13;102149.63;;;-3.14;100.00
25658;BME280;13517;59.320;18.042;2023-12-07T09:01:38;102120.38;;;-3.23;100.00
25658;BME280;13517;59.320;18.042;2023-12-07T09:04:04;102145.22;;;-3.15;100.00
25658;BME280;13517;59.320;18.042;2023-12-07T09:06:30;102131.13;;;-3.14;100.00
25658;BME280;13517;59.320;18.042;2023-12-07T09:08:56;102108.88;;;-3.27;100.00
25658;BME280;13517;59.320;18.042;2023-12-07T09:11:21;102153.38;;;-2.98;100.00
25658;BME280;13517;59.320;18.042;2023-12-07T09:13:47;102147.25;;;-2.95;100.00
25658;BME280;13517;59.320;18.042;2023-12-07T09:16:12;102129.56;;;-2.99;100.00
25658;BME280;13517;59.320;18.042;2023-12-07T09:18:38;102118.03;;;-3.05;100.00
25658;BME280;13517;59.320;18.042;2023-12-07T09:21:03;102136.88;;;-2.81;100.00
25658;BME280;13517;59.320;18.042;2023-12-07T09:23:29;102149.25;;;-2.77;100.00
25658;BME280;13517;59.320;18.042;2023-12-07T09:25:54;102083.63;;;-3.08;100.00
25658;BME280;13517;59.320;18.042;2023-12-07T09:28:20;102112.13;;;-2.85;100.00
25658;BME280;13517;59.320;18.042;2023-12-07T09:30:45;102113.97;;;-2.79;100.00
25658;BME280;13517;59.320;18.042;2023-12-07T09:33:11;102132.69;;;-2.65;100.00
25658;BME280;13517;59.320;18.042;2023-12-07T09:35:36;102106.03;;;-2.79;100.00
25658;BME280;13517;59.320;18.042;2023-12-07T09:38:01;102131.00;;;-2.58;100.00
25658;BME280;13517;59.320;18.042;2023-12-07T09:40:27;102106.16;;;-2.68;100.00
25658;BME280;13517;59.320;18.042;2023-12-07T09:42:53;102133.69;;;-2.54;100.00
25658;BME280;13517;59.320;18.042;2023-12-07T09:45:19;102100.84;;;-2.70;100.00
25658;BME280;13517;59.320;18.042;2023-12-07T09:47:50;102086.81;;;-2.63;100.00
25658;BME280;13517;59.320;18.042;2023-12-07T09:50:17;102108.94;;;-2.61;100.00
25658;BME280;13517;59.320;18.042;2023-12-07T09:52:52;102135.63;;;-2.40;100.00
25658;BME280;13517;59.320;18.042;2023-12-07T09:55:19;102104.63;;;-2.49;100.00
25658;BME280;13517;59.320;18.042;2023-12-07T09:57:45;102095.78;;;-2.51;100.00
25658;BME280;13517;59.320;18.042;2023-12-07T10:00:11;102124.22;;;-2.35;100.00
25658;BME280;13517;59.320;18.042;2023-12-07T10:02:40;102127.78;;;-2.33;100.00
25658;BME280;13517;59.320;18.042;2023-12-07T10:05:10;102118.00;;;-2.37;100.00
25658;BME280;13517;59.320;18.042;2023-12-07T10:07:54;102098.53;;;-2.43;100.00
25658;BME280;13517;59.320;18.042;2023-12-07T10:10:19;102074.59;;;-2.54;100.00
25658;BME280;13517;59.320;18.042;2023-12-07T10:12:47;102118.19;;;-2.23;100.00
25658;BME280;13517;59.320;18.042;2023-12-07T10:15:14;102077.34;;;-2.45;100.00
25658;BME280;13517;59.320;18.042;2023-12-07T10:17:48;102120.91;;;-2.15;100.00
25658;BME280;13517;59.320;18.042;2023-12-07T10:20:21;102082.81;;;-2.29;100.00
25658;BME280;13517;59.320;18.042;2023-12-07T10:23:08;102122.72;;;-2.11;100.00
25658;BME280;13517;59.320;18.042;2023-12-07T10:25:41;102109.47;;;-2.11;100.00
25658;BME280;13517;59.320;18.042;2023-12-07T10:28:08;102114.00;;;-2.02;100.00
25658;BME280;13517;59.320;18.042;2023-12-07T10:30:36;102071.38;;;-2.24;100.00
25658;BME280;13517;59.320;18.042;2023-12-07T10:33:05;102092.75;;;-2.08;100.00
25658;BME280;13517;59.320;18.042;2023-12-07T10:35:32;102101.69;;;-1.95;100.00
25658;BME280;13517;59.320;18.042;2023-12-07T10:37:57;102093.75;;;-1.92;100.00
25658;BME280;13517;59.320;18.042;2023-12-07T10:40:23;102068.03;;;-2.06;100.00
25658;BME280;13517;59.320;18.042;2023-12-07T10:42:54;102050.38;;;-2.08;100.00
25658;BME280;13517;59.320;18.042;2023-12-07T10:45:21;102075.28;;;-1.87;100.00
25658;BME280;13517;59.320;18.042;2023-12-07T10:47:51;102091.22;;;-1.80;100.00
25658;BME280;13517;59.320;18.042;2023-12-07T10:50:21;102081.50;;;-1.78;100.00
25658;BME280;13517;59.320;18.042;2023-12-07T10:52:52;102085.06;;;-1.77;100.00
25658;BME280;13517;59.320;18.042;2023-12-07T10:55:28;102079.78;;;-1.75;100.00
25658;BME280;13517;59.320;18.042;2023-12-07T10:57:55;102056.78;;;-1.83;100.00
25658;BME280;13517;59.320;18.042;2023-12-07T11:00:21;102066.56;;;-1.72;100.00
25658;BME280;13517;59.320;18.042;2023-12-07T11:02:53;102036.41;;;-1.87;100.00
25658;BME280;13517;59.320;18.042;2023-12-07T11:05:18;102043.53;;;-1.83;100.00
25658;BME280;13517;59.320;18.042;2023-12-07T11:07:52;102042.66;;;-1.82;100.00
25658;BME280;13517;59.320;18.042;2023-12-07T11:10:32;102062.22;;;-1.66;100.00
25658;BME280;13517;59.320;18.042;2023-12-07T11:13:18;102034.69;;;-1.83;100.00
25658;BME280;13517;59.320;18.042;2023-12-07T11:15:45;102050.72;;;-1.66;100.00
25658;BME280;13517;59.320;18.042;2023-12-07T11:18:11;102027.63;;;-1.83;100.00
25658;BME280;13517;59.320;18.042;2023-12-07T11:20:45;102062.25;;;-1.59;100.00
25658;BME280;13517;59.320;18.042;2023-12-07T11:23:16;102024.09;;;-1.82;100.00
25658;BME280;13517;59.320;18.042;2023-12-07T11:25:43;102052.47;;;-1.68;100.00
25658;BME280;13517;59.320;18.042;2023-12-07T11:28:10;102052.53;;;-1.62;100.00
25658;BME280;13517;59.320;18.042;2023-12-07T11:30:36;102063.16;;;-1.54;100.00
25658;BME280;13517;59.320;18.042;2023-12-07T11:33:04;102062.28;;;-1.53;100.00
25658;BME280;13517;59.320;18.042;2023-12-07T11:35:30;102061.41;;;-1.51;100.00
25658;BME280;13517;59.320;18.042;2023-12-07T11:38:06;102063.19;;;-1.49;100.00
25658;BME280;13517;59.320;18.042;2023-12-07T11:40:35;102057.94;;;-1.46;100.00
25658;BME280;13517;59.320;18.042;2023-12-07T11:43:01;102029.56;;;-1.63;100.00
25658;BME280;13517;59.320;18.042;2023-12-07T11:45:47;102070.28;;;-1.45;100.00
25658;BME280;13517;59.320;18.042;2023-12-07T11:48:16;102036.59;;;-1.60;100.00
25658;BME280;13517;59.320;18.042;2023-12-07T11:50:54;102065.00;;;-1.48;100.00
25658;BME280;13517;59.320;18.042;2023-12-07T11:53:27;102047.28;;;-1.56;100.00
25658;BME280;13517;59.320;18.042;2023-12-07T11:55:55;102064.13;;;-1.43;100.00
25658;BME280;13517;59.320;18.042;2023-12-07T11:58:21;102062.38;;;-1.41;100.00
25658;BME280;13517;59.320;18.042;2023-12-07T12:00:47;102034.88;;;-1.55;100.00
25658;BME280;13517;59.320;18.042;2023-12-07T12:03:15;102032.28;;;-1.47;100.00
25658;BME280;13517;59.320;18.042;2023-12-07T12:05:41;102007.50;;;-1.54;100.00
25658;BME280;13517;59.320;18.042;2023-12-07T12:08:08;102044.75;;;-1.31;100.00
25658;BME280;13517;59.320;18.042;2023-12-07T12:10:34;101998.66;;;-1.53;100.00
25658;BME280;13517;59.320;18.042;2023-12-07T12:13:03;102040.31;;;-1.35;100.00
25658;BME280;13517;59.320;18.042;2023-12-07T12:15:29;102019.03;;;-1.47;100.00
25658;BME280;13517;59.320;18.042;2023-12-07T12:17:58;102042.97;;;-1.37;100.00
25658;BME280;13517;59.320;18.042;2023-12-07T12:20:25;102036.78;;;-1.35;100.00
25658;BME280;13517;59.320;18.042;2023-12-07T12:22:51;102048.34;;;-1.26;100.00
25658;BME280;13517;59.320;18.042;2023-12-07T12:25:24;102037.69;;;-1.32;100.00
25658;BME280;13517;59.320;18.042;2023-12-07T12:28:02;102001.38;;;-1.48;100.00
25658;BME280;13517;59.320;18.042;2023-12-07T12:30:29;102030.63;;;-1.30;100.00